Valladolid Airport, Spain

6:49 PM CEST on March 26, 2017 (GMT +0200)
Villanubla | | Change Station

Elev 2789 ft 41.75 °N, 4.89 °W | Updated 5 minutes ago

Mostly Cloudy
Mostly Cloudy
49.9 °F
Feels Like 50 °F
N
0.0
Wind Variable Wind from ESE
Gusts 0.0 mph

Today
High -- | Low -- °F
--% Chance of Precip.
Yesterday
High -- | Low -- °F
Precip. -- in
Pressure 29.83 in
Visibility 6.2 miles
Clouds Mostly Cloudy 3800 ft
Mostly Cloudy 4500 ft
Windchill 50 °F
Dew Point 39 °F
Humidity 67%
Rainfall 0.04 in
Snow Depth Not available.
8:12 AM 8:38 PM
Waning Crescent, 3% visible
METAR LEVD 261630Z 15018KT 9999 BKN038 BKN045 10/03 Q1010
Pressure 29.83 in
Visibility 6.2 miles
Clouds Mostly Cloudy 3800 ft
Mostly Cloudy 4500 ft
Windchill 50 °F
Dew Point 39 °F
Humidity 67%
Rainfall 0.04 in
Snow Depth Not available.
8:12 AM 8:38 PM
Waning Crescent, 3% visible
METAR LEVD 261630Z 15018KT 9999 BKN038 BKN045 10/03 Q1010

Get Severe Weather Alerts

Thanks for signing up!

Be on the lookout for a verification email in your inbox.

You'll start receiving the daily forecast at 8 AM.

×

10-Day Weather Forecast

×

Almanac

Astronomy

Mar. 26, 2017 Rise Set
Actual Time
Civil Twilight
Nautical Twilight
Astronomical Twilight
Moon
Length of Visible Light
Length of Day
Tomorrow will be .
, % of the Moon is Illuminated

Today's Extremes

Country Highs Country Lows

Community

WunderPhotos

Upload Photos

1,962,540 photos uploaded!

WunderBlog® & News

Nearby

Air Quality

  Air Quality AQ Index Pollutant
Not available.

Snow Depth

Station Depth Elevation

Earthquake Activity

City Distance Mag. Time & Date
Minimum magnitude displayed is 2.5.

Earthquake Activity

City Distance Mag. Time & Date
Minimum magnitude displayed is 2.5.

Coastal Water Temperatures

Place Temperature

Stations

Nearby Weather Stations

Station Location Temp. Windchill Dew Point Humidity Wind Precip. Elev Updated Type